Sao Jorge — CSIA — position and weather

sailwx.info

Track history (hours):
 
Tides and Currents Weather Stations Pressure Air Temp Water Temp Dewpoint Dewpoint Depression Visibility Wind Speed Wind Dir Waves Ship Positions

Sao Jorge

Last reported at 2015-May-26 17:17 UTC. Time now 2015-May-28 01:49 UTC.
Position N 38°41' W 009°09'.

Length 59 m; draft 24.8 m.

Type: Passenger vessel. MMSI: 263701790.

Date/timePositionNaut miles runAvg speedWind from/ knotsBaromVisibWave heightAir tempDewpointWater temp
2015-May-26 17:17N 38°41' W 009°09'0 0.4
2015-May-26 16:33N 38°41' W 009°09'0 0.0
2015-May-26 09:04N 38°41' W 009°09'0 0.0
2015-May-26 08:33N 38°41' W 009°09'0 0.1
2015-May-26 07:33N 38°41' W 009°09'1 0.6
2015-May-26 06:33N 38°42' W 009°09'1 0.7
2015-May-26 05:33N 38°41' W 009°09'0 0.0
2015-May-25 19:08N 38°41' W 009°09'0 0.0
2015-May-25 18:34N 38°41' W 009°09'0 0.1
2015-May-25 17:33N 38°41' W 009°09'1 0.6
2015-May-25 16:33N 38°42' W 009°09'1 0.7
2015-May-25 15:33N 38°41' W 009°09'  
2015-May-20 16:33N 38°41' W 009°09'0 0.0
2015-May-20 15:33N 38°41' W 009°09'0 0.0
2015-May-20 08:13N 38°41' W 009°09'0 0.0
2015-May-20 07:33N 38°41' W 009°09'0 0.0
2015-May-20 06:33N 38°41' W 009°09'0 0.0
2015-May-19 21:19N 38°41' W 009°09'0 0.0
2015-May-19 20:33N 38°41' W 009°09'2 2.1
2015-May-19 19:33N 38°43' W 009°07'1 0.5
2015-May-19 18:33N 38°43' W 009°07'5 5.1
2015-May-19 17:33N 38°41' W 009°13'1 0.8
2015-May-19 16:33N 38°42' W 009°12'2 2.3
2015-May-19 15:33N 38°41' W 009°09'0 0.0
2015-May-19 14:33N 38°41' W 009°09'0 0.2
2015-May-19 13:33N 38°41' W 009°09'0 0.0
2015-May-19 12:25N 38°41' W 009°09'0 0.2
2015-May-19 11:33N 38°41' W 009°09'0 0.1
2015-May-19 10:27N 38°41' W 009°09'0 0.0
2015-May-19 09:33N 38°41' W 009°09'0 0.0
2015-May-19 08:33N 38°41' W 009°09'0 0.0
2015-May-19 07:32N 38°41' W 009°09'0 0.0
2015-May-18 19:11N 38°41' W 009°09'0 0.4
2015-May-18 18:33N 38°41' W 009°09'0 0.1
2015-May-18 17:33N 38°41' W 009°09'1 0.7
2015-May-18 16:33N 38°42' W 009°09'1 1.0
2015-May-18 15:34N 38°41' W 009°09'0 0.0
2015-May-18 14:33N 38°41' W 009°09'0 0.0
2015-May-18 13:32N 38°41' W 009°09'0 0.0
2015-May-18 12:33N 38°41' W 009°09'0 0.0
2015-May-18 11:33N 38°41' W 009°09'1 0.3
2015-May-18 09:33N 38°42' W 009°09'0 0.4
2015-May-18 08:33N 38°41' W 009°09'0 0.0
2015-May-18 07:33N 38°41' W 009°09'1 0.5
2015-May-18 06:33N 38°42' W 009°09'1 0.5
2015-May-18 05:33N 38°41' W 009°09'0 0.0
2015-May-17 13:06N 38°41' W 009°09'0 0.0
2015-May-16 20:21N 38°41' W 009°09'0 0.0
2015-May-16 19:33N 38°41' W 009°09'0 0.0
2015-May-16 18:33N 38°41' W 009°09'1 1.0
2015-May-16 17:33N 38°42' W 009°09'  
Track history (hours):
 
Tides and Currents Weather Stations Pressure Air Temp Water Temp Dewpoint Dewpoint Depression Visibility Wind Speed Wind Dir Waves Ship Positions

Sao Jorge

Last reported at 2015-May-26 17:17 UTC. Time now 2015-May-28 01:49 UTC.
Position N 38°41' W 009°09'.

Length 59 m; draft 24.8 m.

Type: Passenger vessel. MMSI: 263701790.

Date/timePositionNaut miles runAvg speedWind from/ knotsBaromVisibWave heightAir tempDewpointWater temp
2015-May-26 17:17N 38°41' W 009°09'0 0.4
2015-May-26 16:33N 38°41' W 009°09'0 0.0
2015-May-26 09:04N 38°41' W 009°09'0 0.0
2015-May-26 08:33N 38°41' W 009°09'0 0.1
2015-May-26 07:33N 38°41' W 009°09'1 0.6
2015-May-26 06:33N 38°42' W 009°09'1 0.7
2015-May-26 05:33N 38°41' W 009°09'0 0.0
2015-May-25 19:08N 38°41' W 009°09'0 0.0
2015-May-25 18:34N 38°41' W 009°09'0 0.1
2015-May-25 17:33N 38°41' W 009°09'1 0.6
2015-May-25 16:33N 38°42' W 009°09'1 0.7
2015-May-25 15:33N 38°41' W 009°09'  
2015-May-20 16:33N 38°41' W 009°09'0 0.0
2015-May-20 15:33N 38°41' W 009°09'0 0.0
2015-May-20 08:13N 38°41' W 009°09'0 0.0
2015-May-20 07:33N 38°41' W 009°09'0 0.0
2015-May-20 06:33N 38°41' W 009°09'0 0.0
2015-May-19 21:19N 38°41' W 009°09'0 0.0
2015-May-19 20:33N 38°41' W 009°09'2 2.1
2015-May-19 19:33N 38°43' W 009°07'1 0.5
2015-May-19 18:33N 38°43' W 009°07'5 5.1
2015-May-19 17:33N 38°41' W 009°13'1 0.8
2015-May-19 16:33N 38°42' W 009°12'2 2.3
2015-May-19 15:33N 38°41' W 009°09'0 0.0
2015-May-19 14:33N 38°41' W 009°09'0 0.2
2015-May-19 13:33N 38°41' W 009°09'0 0.0
2015-May-19 12:25N 38°41' W 009°09'0 0.2
2015-May-19 11:33N 38°41' W 009°09'0 0.1
2015-May-19 10:27N 38°41' W 009°09'0 0.0
2015-May-19 09:33N 38°41' W 009°09'0 0.0
2015-May-19 08:33N 38°41' W 009°09'0 0.0
2015-May-19 07:32N 38°41' W 009°09'0 0.0
2015-May-18 19:11N 38°41' W 009°09'0 0.4
2015-May-18 18:33N 38°41' W 009°09'0 0.1
2015-May-18 17:33N 38°41' W 009°09'1 0.7
2015-May-18 16:33N 38°42' W 009°09'1 1.0
2015-May-18 15:34N 38°41' W 009°09'0 0.0
2015-May-18 14:33N 38°41' W 009°09'0 0.0
2015-May-18 13:32N 38°41' W 009°09'0 0.0
2015-May-18 12:33N 38°41' W 009°09'0 0.0
2015-May-18 11:33N 38°41' W 009°09'1 0.3
2015-May-18 09:33N 38°42' W 009°09'0 0.4
2015-May-18 08:33N 38°41' W 009°09'0 0.0
2015-May-18 07:33N 38°41' W 009°09'1 0.5
2015-May-18 06:33N 38°42' W 009°09'1 0.5
2015-May-18 05:33N 38°41' W 009°09'0 0.0
2015-May-17 13:06N 38°41' W 009°09'0 0.0
2015-May-16 20:21N 38°41' W 009°09'0 0.0
2015-May-16 19:33N 38°41' W 009°09'0 0.0
2015-May-16 18:33N 38°41' W 009°09'1 1.0
2015-May-16 17:33N 38°42' W 009°09'  

Dump ship's entire track history